sensor_id;sensor_type;location;lat;lon;timestamp;pressure;altitude;pressure_sealevel;temperature
69704;BMP280;56967;43.538;-5.646;2023-04-07T00:00:05;99566.94;;;11.75
69704;BMP280;56967;43.538;-5.646;2023-04-07T00:02:31;99550.75;;;11.88
69704;BMP280;56967;43.538;-5.646;2023-04-07T00:04:57;99558.28;;;11.80
69704;BMP280;56967;43.538;-5.646;2023-04-07T00:07:22;99537.81;;;11.87
69704;BMP280;56967;43.538;-5.646;2023-04-07T00:09:48;99545.25;;;11.90
69704;BMP280;56967;43.538;-5.646;2023-04-07T00:12:14;99546.00;;;11.90
69704;BMP280;56967;43.538;-5.646;2023-04-07T00:14:42;99562.88;;;11.89
69704;BMP280;56967;43.538;-5.646;2023-04-07T00:17:08;99546.00;;;11.90
69704;BMP280;56967;43.538;-5.646;2023-04-07T00:19:33;99565.25;;;11.91
69704;BMP280;56967;43.538;-5.646;2023-04-07T00:22:00;99561.44;;;11.82
69704;BMP280;56967;43.538;-5.646;2023-04-07T00:24:26;99549.94;;;11.88
69704;BMP280;56967;43.538;-5.646;2023-04-07T00:26:51;99541.44;;;11.81
69704;BMP280;56967;43.538;-5.646;2023-04-07T00:29:17;99519.84;;;11.79
69704;BMP280;56967;43.538;-5.646;2023-04-07T00:31:43;99519.59;;;11.80
69704;BMP280;56967;43.538;-5.646;2023-04-07T00:34:09;99508.81;;;11.82
69704;BMP280;56967;43.538;-5.646;2023-04-07T00:36:35;99503.00;;;11.80
69704;BMP280;56967;43.538;-5.646;2023-04-07T00:39:00;99498.97;;;11.72
69704;BMP280;56967;43.538;-5.646;2023-04-07T00:41:26;99470.81;;;11.73
69704;BMP280;56967;43.538;-5.646;2023-04-07T00:43:51;99442.63;;;11.68
69704;BMP280;56967;43.538;-5.646;2023-04-07T00:46:19;99417.34;;;11.67
69704;BMP280;56967;43.538;-5.646;2023-04-07T00:48:46;99366.22;;;11.58
69704;BMP280;56967;43.538;-5.646;2023-04-07T00:51:12;99314.06;;;11.50
69704;BMP280;56967;43.538;-5.646;2023-04-07T00:53:38;99274.06;;;11.43
69704;BMP280;56967;43.538;-5.646;2023-04-07T00:56:03;99211.00;;;11.53
69704;BMP280;56967;43.538;-5.646;2023-04-07T00:58:29;99190.69;;;11.48
69704;BMP280;56967;43.538;-5.646;2023-04-07T01:01:05;99175.19;;;11.47
69704;BMP280;56967;43.538;-5.646;2023-04-07T01:03:49;99159.13;;;11.48
69704;BMP280;56967;43.538;-5.646;2023-04-07T01:06:17;99146.75;;;11.49
69704;BMP280;56967;43.538;-5.646;2023-04-07T01:11:28;99298.25;;;11.45
69704;BMP280;56967;43.538;-5.646;2023-04-07T01:13:56;99343.19;;;11.38
69704;BMP280;56967;43.538;-5.646;2023-04-07T01:16:40;99384.75;;;11.41
69704;BMP280;56967;43.538;-5.646;2023-04-07T01:19:38;99433.69;;;11.42
69704;BMP280;56967;43.538;-5.646;2023-04-07T01:22:10;99451.84;;;11.39
69704;BMP280;56967;43.538;-5.646;2023-04-07T01:30:02;99516.78;;;11.38
69704;BMP280;56967;43.538;-5.646;2023-04-07T01:32:29;99525.75;;;11.42
69704;BMP280;56967;43.538;-5.646;2023-04-07T01:34:56;99553.09;;;11.41
69704;BMP280;56967;43.538;-5.646;2023-04-07T01:37:24;99544.19;;;11.42
69704;BMP280;56967;43.538;-5.646;2023-04-07T01:39:50;99558.13;;;11.43
69704;BMP280;56967;43.538;-5.646;2023-04-07T01:42:18;99579.72;;;11.45
69704;BMP280;56967;43.538;-5.646;2023-04-07T01:44:44;99599.41;;;11.42
69704;BMP280;56967;43.538;-5.646;2023-04-07T01:47:11;99607.47;;;11.36
69704;BMP280;56967;43.538;-5.646;2023-04-07T01:49:37;99565.91;;;11.33
69704;BMP280;56967;43.538;-5.646;2023-04-07T01:52:04;99593.94;;;11.05
69704;BMP280;56967;43.538;-5.646;2023-04-07T01:54:30;99499.91;;;11.34
69704;BMP280;56967;43.538;-5.646;2023-04-07T01:56:56;99500.44;;;11.36
69704;BMP280;56967;43.538;-5.646;2023-04-07T01:59:22;99461.66;;;11.27
69704;BMP280;56967;43.538;-5.646;2023-04-07T02:01:47;99430.72;;;11.34
69704;BMP280;56967;43.538;-5.646;2023-04-07T02:04:34;99475.44;;;11.34
69704;BMP280;56967;43.538;-5.646;2023-04-07T02:07:08;99510.69;;;11.33
69704;BMP280;56967;43.538;-5.646;2023-04-07T02:09:37;99547.50;;;11.33
69704;BMP280;56967;43.538;-5.646;2023-04-07T02:12:07;99582.97;;;11.30
69704;BMP280;56967;43.538;-5.646;2023-04-07T02:14:34;99550.66;;;11.35
69704;BMP280;56967;43.538;-5.646;2023-04-07T02:17:01;99623.56;;;11.18
69704;BMP280;56967;43.538;-5.646;2023-04-07T02:19:28;99608.09;;;11.04
69704;BMP280;56967;43.538;-5.646;2023-04-07T02:21:54;99648.81;;;10.85
69704;BMP280;56967;43.538;-5.646;2023-04-07T02:24:20;99699.03;;;10.72
69704;BMP280;56967;43.538;-5.646;2023-04-07T02:26:46;99690.88;;;10.85
69704;BMP280;56967;43.538;-5.646;2023-04-07T02:29:12;99687.06;;;10.93
69704;BMP280;56967;43.538;-5.646;2023-04-07T02:31:38;99687.38;;;10.96
69704;BMP280;56967;43.538;-5.646;2023-04-07T02:34:04;99711.03;;;10.96
69704;BMP280;56967;43.538;-5.646;2023-04-07T02:36:29;99734.91;;;10.95
69704;BMP280;56967;43.538;-5.646;2023-04-07T02:38:55;99719.53;;;11.03
69704;BMP280;56967;43.538;-5.646;2023-04-07T02:41:21;99785.66;;;10.95
69704;BMP280;56967;43.538;-5.646;2023-04-07T02:43:46;99852.44;;;10.94
69704;BMP280;56967;43.538;-5.646;2023-04-07T02:46:12;99894.84;;;10.86
69704;BMP280;56967;43.538;-5.646;2023-04-07T02:48:37;99898.59;;;10.90
69704;BMP280;56967;43.538;-5.646;2023-04-07T02:51:03;99901.47;;;10.89
69704;BMP280;56967;43.538;-5.646;2023-04-07T02:53:28;99916.25;;;10.78
69704;BMP280;56967;43.538;-5.646;2023-04-07T02:55:54;99903.91;;;10.79
69704;BMP280;56967;43.538;-5.646;2023-04-07T02:58:20;99884.00;;;10.83
69704;BMP280;56967;43.538;-5.646;2023-04-07T03:00:47;99890.28;;;10.82
69704;BMP280;56967;43.538;-5.646;2023-04-07T03:03:12;99889.72;;;10.80
69704;BMP280;56967;43.538;-5.646;2023-04-07T03:05:38;99886.53;;;10.78
69704;BMP280;56967;43.538;-5.646;2023-04-07T03:08:04;99924.13;;;10.78
69704;BMP280;56967;43.538;-5.646;2023-04-07T03:10:29;99921.06;;;10.58
69704;BMP280;56967;43.538;-5.646;2023-04-07T03:12:55;99887.25;;;10.50
69704;BMP280;56967;43.538;-5.646;2023-04-07T03:15:21;99833.63;;;10.34
69704;BMP280;56967;43.538;-5.646;2023-04-07T03:17:46;99827.81;;;10.21
69704;BMP280;56967;43.538;-5.646;2023-04-07T03:20:12;99809.78;;;10.13
69704;BMP280;56967;43.538;-5.646;2023-04-07T03:22:37;99780.34;;;10.11
69704;BMP280;56967;43.538;-5.646;2023-04-07T03:25:03;99752.00;;;10.24
69704;BMP280;56967;43.538;-5.646;2023-04-07T03:27:29;99767.22;;;10.11
69704;BMP280;56967;43.538;-5.646;2023-04-07T03:29:55;99752.94;;;10.07
69704;BMP280;56967;43.538;-5.646;2023-04-07T03:32:20;99738.44;;;10.16
69704;BMP280;56967;43.538;-5.646;2023-04-07T03:34:46;99762.06;;;10.16
69704;BMP280;56967;43.538;-5.646;2023-04-07T03:37:11;99778.72;;;10.21
69704;BMP280;56967;43.538;-5.646;2023-04-07T03:39:37;99790.59;;;10.24
69704;BMP280;56967;43.538;-5.646;2023-04-07T03:42:03;99788.09;;;10.29
69704;BMP280;56967;43.538;-5.646;2023-04-07T03:44:28;99765.34;;;10.34
69704;BMP280;56967;43.538;-5.646;2023-04-07T03:46:54;99766.13;;;10.35
69704;BMP280;56967;43.538;-5.646;2023-04-07T03:49:20;99811.72;;;10.29
69704;BMP280;56967;43.538;-5.646;2023-04-07T03:51:46;99819.59;;;10.29
69704;BMP280;56967;43.538;-5.646;2023-04-07T03:54:11;99831.34;;;10.26
69704;BMP280;56967;43.538;-5.646;2023-04-07T03:56:37;99827.09;;;10.25
69704;BMP280;56967;43.538;-5.646;2023-04-07T03:59:02;99803.13;;;10.33
69704;BMP280;56967;43.538;-5.646;2023-04-07T04:01:28;99818.78;;;10.28
69704;BMP280;56967;43.538;-5.646;2023-04-07T04:03:53;99813.53;;;10.28
69704;BMP280;56967;43.538;-5.646;2023-04-07T04:06:19;99840.34;;;10.07
69704;BMP280;56967;43.538;-5.646;2023-04-07T04:08:45;99819.59;;;9.94
69704;BMP280;56967;43.538;-5.646;2023-04-07T04:11:10;99769.25;;;10.09
69704;BMP280;56967;43.538;-5.646;2023-04-07T04:13:36;99806.59;;;9.76
69704;BMP280;56967;43.538;-5.646;2023-04-07T04:16:01;99788.78;;;9.66
69704;BMP280;56967;43.538;-5.646;2023-04-07T04:18:27;99789.44;;;9.62
69704;BMP280;56967;43.538;-5.646;2023-04-07T04:20:52;99778.72;;;9.40
69704;BMP280;56967;43.538;-5.646;2023-04-07T04:23:18;99736.44;;;9.60
69704;BMP280;56967;43.538;-5.646;2023-04-07T04:25:43;99769.75;;;9.59
69704;BMP280;56967;43.538;-5.646;2023-04-07T04:28:09;99786.41;;;9.65
69704;BMP280;56967;43.538;-5.646;2023-04-07T04:30:34;99795.50;;;9.62
69704;BMP280;56967;43.538;-5.646;2023-04-07T04:33:00;99806.69;;;9.58
69704;BMP280;56967;43.538;-5.646;2023-04-07T04:35:25;99819.25;;;9.67
69704;BMP280;56967;43.538;-5.646;2023-04-07T04:37:51;99817.28;;;9.63
69704;BMP280;56967;43.538;-5.646;2023-04-07T04:40:17;99822.78;;;9.73
69704;BMP280;56967;43.538;-5.646;2023-04-07T04:42:42;99838.31;;;9.74
69704;BMP280;56967;43.538;-5.646;2023-04-07T04:45:08;99836.84;;;9.78
69704;BMP280;56967;43.538;-5.646;2023-04-07T04:47:34;99880.03;;;9.64
69704;BMP280;56967;43.538;-5.646;2023-04-07T04:49:59;99848.00;;;9.44
69704;BMP280;56967;43.538;-5.646;2023-04-07T04:52:25;99814.75;;;9.33
69704;BMP280;56967;43.538;-5.646;2023-04-07T04:54:51;99786.38;;;9.42
69704;BMP280;56967;43.538;-5.646;2023-04-07T04:57:17;99725.34;;;9.23
69704;BMP280;56967;43.538;-5.646;2023-04-07T04:59:42;99724.78;;;9.44
69704;BMP280;56967;43.538;-5.646;2023-04-07T05:02:07;99766.06;;;9.49
69704;BMP280;56967;43.538;-5.646;2023-04-07T05:04:33;99799.94;;;9.50
69704;BMP280;56967;43.538;-5.646;2023-04-07T05:06:59;99840.91;;;9.51
69704;BMP280;56967;43.538;-5.646;2023-04-07T05:09:24;99859.72;;;9.60
69704;BMP280;56967;43.538;-5.646;2023-04-07T05:11:50;99885.25;;;9.53
69704;BMP280;56967;43.538;-5.646;2023-04-07T05:14:15;99876.28;;;9.60
69704;BMP280;56967;43.538;-5.646;2023-04-07T05:16:41;99869.31;;;9.66
69704;BMP280;56967;43.538;-5.646;2023-04-07T05:19:06;99893.63;;;9.61
69704;BMP280;56967;43.538;-5.646;2023-04-07T05:21:32;99878.28;;;9.58
69704;BMP280;56967;43.538;-5.646;2023-04-07T05:23:57;99875.47;;;9.60
69704;BMP280;56967;43.538;-5.646;2023-04-07T05:26:23;99895.63;;;9.59
69704;BMP280;56967;43.538;-5.646;2023-04-07T05:28:48;99904.97;;;9.55
69704;BMP280;56967;43.538;-5.646;2023-04-07T05:31:14;99909.41;;;9.55
69704;BMP280;56967;43.538;-5.646;2023-04-07T05:33:39;99872.41;;;9.45
69704;BMP280;56967;43.538;-5.646;2023-04-07T05:36:05;99845.44;;;9.26
69704;BMP280;56967;43.538;-5.646;2023-04-07T05:38:31;99818.63;;;9.12
69704;BMP280;56967;43.538;-5.646;2023-04-07T05:40:56;99780.72;;;9.15
69704;BMP280;56967;43.538;-5.646;2023-04-07T05:43:22;99788.84;;;9.36
69704;BMP280;56967;43.538;-5.646;2023-04-07T05:45:47;99838.13;;;9.46
69704;BMP280;56967;43.538;-5.646;2023-04-07T05:48:13;99873.50;;;9.55
69704;BMP280;56967;43.538;-5.646;2023-04-07T05:50:38;99918.66;;;9.57
69704;BMP280;56967;43.538;-5.646;2023-04-07T05:53:04;99968.47;;;9.57
69704;BMP280;56967;43.538;-5.646;2023-04-07T05:55:29;100004.13;;;9.65
69704;BMP280;56967;43.538;-5.646;2023-04-07T05:57:55;100019.09;;;9.76
69704;BMP280;56967;43.538;-5.646;2023-04-07T06:00:20;100061.81;;;9.83
69704;BMP280;56967;43.538;-5.646;2023-04-07T06:02:46;100096.41;;;9.91
69704;BMP280;56967;43.538;-5.646;2023-04-07T06:05:11;100107.50;;;9.75
69704;BMP280;56967;43.538;-5.646;2023-04-07T06:07:37;100147.97;;;9.68
69704;BMP280;56967;43.538;-5.646;2023-04-07T06:10:03;100138.19;;;9.93
69704;BMP280;56967;43.538;-5.646;2023-04-07T06:12:28;100244.34;;;9.79
69704;BMP280;56967;43.538;-5.646;2023-04-07T06:14:54;100245.69;;;9.81
69704;BMP280;56967;43.538;-5.646;2023-04-07T06:17:21;100280.91;;;9.74
69704;BMP280;56967;43.538;-5.646;2023-04-07T06:19:46;100310.94;;;10.57
69704;BMP280;56967;43.538;-5.646;2023-04-07T06:22:12;100535.72;;;11.50
69704;BMP280;56967;43.538;-5.646;2023-04-07T06:24:38;100749.97;;;12.22
69704;BMP280;56967;43.538;-5.646;2023-04-07T06:27:03;100968.06;;;13.47
69704;BMP280;56967;43.538;-5.646;2023-04-07T06:29:29;101172.38;;;14.95
69704;BMP280;56967;43.538;-5.646;2023-04-07T06:31:55;101292.13;;;14.79
69704;BMP280;56967;43.538;-5.646;2023-04-07T06:34:21;101316.38;;;14.76
69704;BMP280;56967;43.538;-5.646;2023-04-07T06:36:46;101310.69;;;14.31
69704;BMP280;56967;43.538;-5.646;2023-04-07T06:39:12;101314.75;;;15.16
69704;BMP280;56967;43.538;-5.646;2023-04-07T06:41:37;101357.81;;;15.92
69704;BMP280;56967;43.538;-5.646;2023-04-07T06:44:03;101406.00;;;17.25
69704;BMP280;56967;43.538;-5.646;2023-04-07T06:46:29;101444.09;;;17.31
69704;BMP280;56967;43.538;-5.646;2023-04-07T06:48:55;101460.13;;;17.86
69704;BMP280;56967;43.538;-5.646;2023-04-07T06:51:20;101476.75;;;18.58
69704;BMP280;56967;43.538;-5.646;2023-04-07T06:53:46;101507.09;;;18.57
69704;BMP280;56967;43.538;-5.646;2023-04-07T06:56:13;101483.13;;;18.35
69704;BMP280;56967;43.538;-5.646;2023-04-07T06:58:38;101505.25;;;18.57
69704;BMP280;56967;43.538;-5.646;2023-04-07T07:01:05;101507.34;;;19.67
69704;BMP280;56967;43.538;-5.646;2023-04-07T07:03:31;101520.31;;;20.47
69704;BMP280;56967;43.538;-5.646;2023-04-07T07:05:58;101539.81;;;22.19
69704;BMP280;56967;43.538;-5.646;2023-04-07T07:08:24;101550.13;;;22.94
69704;BMP280;56967;43.538;-5.646;2023-04-07T07:10:50;101566.69;;;24.72
69704;BMP280;56967;43.538;-5.646;2023-04-07T07:13:16;101570.75;;;25.20
69704;BMP280;56967;43.538;-5.646;2023-04-07T07:15:42;101574.59;;;24.45
69704;BMP280;56967;43.538;-5.646;2023-04-07T07:18:07;101583.44;;;25.33
69704;BMP280;56967;43.538;-5.646;2023-04-07T07:20:33;101577.84;;;27.04
69704;BMP280;56967;43.538;-5.646;2023-04-07T07:22:58;101571.69;;;25.97
69704;BMP280;56967;43.538;-5.646;2023-04-07T07:25:24;101586.19;;;28.29
69704;BMP280;56967;43.538;-5.646;2023-04-07T07:27:51;101594.69;;;29.37
69704;BMP280;56967;43.538;-5.646;2023-04-07T07:30:19;101587.41;;;30.61
69704;BMP280;56967;43.538;-5.646;2023-04-07T07:32:45;101586.75;;;30.11
69704;BMP280;56967;43.538;-5.646;2023-04-07T07:35:10;101592.16;;;30.64
69704;BMP280;56967;43.538;-5.646;2023-04-07T07:37:36;101586.88;;;30.35
69704;BMP280;56967;43.538;-5.646;2023-04-07T07:40:02;101590.97;;;31.58
69704;BMP280;56967;43.538;-5.646;2023-04-07T07:42:28;101599.78;;;33.09
69704;BMP280;56967;43.538;-5.646;2023-04-07T07:44:54;101600.88;;;32.45
69704;BMP280;56967;43.538;-5.646;2023-04-07T07:47:20;101604.41;;;32.61
69704;BMP280;56967;43.538;-5.646;2023-04-07T07:49:46;101595.38;;;32.57
69704;BMP280;56967;43.538;-5.646;2023-04-07T07:52:11;101614.25;;;34.43
69704;BMP280;56967;43.538;-5.646;2023-04-07T07:54:37;101607.94;;;35.10
69704;BMP280;56967;43.538;-5.646;2023-04-07T07:57:02;101597.44;;;33.61
69704;BMP280;56967;43.538;-5.646;2023-04-07T07:59:29;101609.06;;;33.58
69704;BMP280;56967;43.538;-5.646;2023-04-07T08:01:55;101612.81;;;34.71
69704;BMP280;56967;43.538;-5.646;2023-04-07T08:04:20;101596.84;;;35.25
69704;BMP280;56967;43.538;-5.646;2023-04-07T08:06:47;101604.81;;;34.59
69704;BMP280;56967;43.538;-5.646;2023-04-07T08:09:13;101595.91;;;34.88
69704;BMP280;56967;43.538;-5.646;2023-04-07T08:11:39;101605.94;;;35.99
69704;BMP280;56967;43.538;-5.646;2023-04-07T08:14:06;101598.72;;;34.47
69704;BMP280;56967;43.538;-5.646;2023-04-07T08:16:31;101620.84;;;35.09
69704;BMP280;56967;43.538;-5.646;2023-04-07T08:18:57;101614.94;;;33.10
69704;BMP280;56967;43.538;-5.646;2023-04-07T08:21:22;101612.06;;;32.13
69704;BMP280;56967;43.538;-5.646;2023-04-07T08:23:48;101626.31;;;30.12
69704;BMP280;56967;43.538;-5.646;2023-04-07T08:26:13;101625.56;;;31.21
69704;BMP280;56967;43.538;-5.646;2023-04-07T08:28:39;101642.72;;;32.53
69704;BMP280;56967;43.538;-5.646;2023-04-07T08:31:05;101648.22;;;33.15
69704;BMP280;56967;43.538;-5.646;2023-04-07T08:33:31;101616.34;;;32.14
69704;BMP280;56967;43.538;-5.646;2023-04-07T08:35:57;101571.72;;;26.68
69704;BMP280;56967;43.538;-5.646;2023-04-07T08:38:22;101627.47;;;26.37
69704;BMP280;56967;43.538;-5.646;2023-04-07T08:40:57;101630.31;;;29.18
69704;BMP280;56967;43.538;-5.646;2023-04-07T08:43:25;101599.34;;;27.88
69704;BMP280;56967;43.538;-5.646;2023-04-07T08:45:54;101585.13;;;27.74
69704;BMP280;56967;43.538;-5.646;2023-04-07T08:48:22;101588.47;;;26.07
69704;BMP280;56967;43.538;-5.646;2023-04-07T08:50:48;101580.31;;;27.45
69704;BMP280;56967;43.538;-5.646;2023-04-07T08:53:22;101590.69;;;25.78
69704;BMP280;56967;43.538;-5.646;2023-04-07T08:55:52;101572.84;;;25.37
69704;BMP280;56967;43.538;-5.646;2023-04-07T08:58:19;101588.75;;;26.06
69704;BMP280;56967;43.538;-5.646;2023-04-07T09:00:45;101571.31;;;25.36
69704;BMP280;56967;43.538;-5.646;2023-04-07T09:03:15;101582.19;;;26.12
69704;BMP280;56967;43.538;-5.646;2023-04-07T09:05:43;101566.13;;;26.65
69704;BMP280;56967;43.538;-5.646;2023-04-07T09:08:09;101569.50;;;26.12
69704;BMP280;56967;43.538;-5.646;2023-04-07T09:10:35;101584.88;;;25.58
69704;BMP280;56967;43.538;-5.646;2023-04-07T09:13:01;101584.09;;;25.11
69704;BMP280;56967;43.538;-5.646;2023-04-07T09:15:30;101560.03;;;24.83
69704;BMP280;56967;43.538;-5.646;2023-04-07T09:17:57;101539.44;;;23.80
69704;BMP280;56967;43.538;-5.646;2023-04-07T09:20:23;101514.50;;;22.89
69704;BMP280;56967;43.538;-5.646;2023-04-07T09:22:49;101501.56;;;22.08
69704;BMP280;56967;43.538;-5.646;2023-04-07T09:25:22;101477.69;;;21.23
69704;BMP280;56967;43.538;-5.646;2023-04-07T09:28:03;101477.69;;;21.23
69704;BMP280;56967;43.538;-5.646;2023-04-07T09:30:30;101473.66;;;20.90
69704;BMP280;56967;43.538;-5.646;2023-04-07T09:32:57;101460.53;;;19.91
69704;BMP280;56967;43.538;-5.646;2023-04-07T09:35:23;101463.28;;;20.16
69704;BMP280;56967;43.538;-5.646;2023-04-07T09:40:27;101441.56;;;19.09
69704;BMP280;56967;43.538;-5.646;2023-04-07T09:42:52;101433.38;;;18.62
69704;BMP280;56967;43.538;-5.646;2023-04-07T09:45:27;101421.97;;;19.20
69704;BMP280;56967;43.538;-5.646;2023-04-07T09:47:53;101412.69;;;18.69
69704;BMP280;56967;43.538;-5.646;2023-04-07T09:50:33;101427.19;;;18.79
69704;BMP280;56967;43.538;-5.646;2023-04-07T09:52:59;101408.28;;;18.53
69704;BMP280;56967;43.538;-5.646;2023-04-07T09:55:27;101410.84;;;18.00
69704;BMP280;56967;43.538;-5.646;2023-04-07T09:57:53;101414.84;;;18.02
69704;BMP280;56967;43.538;-5.646;2023-04-07T10:00:23;101403.06;;;18.15
69704;BMP280;56967;43.538;-5.646;2023-04-07T10:02:49;101410.50;;;18.40
69704;BMP280;56967;43.538;-5.646;2023-04-07T10:05:16;101401.66;;;18.34
69704;BMP280;56967;43.538;-5.646;2023-04-07T10:07:42;101391.06;;;18.39
69704;BMP280;56967;43.538;-5.646;2023-04-07T10:10:08;101383.63;;;18.15
69704;BMP280;56967;43.538;-5.646;2023-04-07T10:12:36;101348.69;;;18.11
69704;BMP280;56967;43.538;-5.646;2023-04-07T10:15:02;101345.50;;;17.87
69704;BMP280;56967;43.538;-5.646;2023-04-07T10:17:30;101363.09;;;17.93
69704;BMP280;56967;43.538;-5.646;2023-04-07T10:19:57;101351.88;;;17.70
69704;BMP280;56967;43.538;-5.646;2023-04-07T10:22:24;101343.63;;;17.88
69704;BMP280;56967;43.538;-5.646;2023-04-07T10:24:58;101338.22;;;17.78
69704;BMP280;56967;43.538;-5.646;2023-04-07T10:28:00;101328.69;;;18.30
69704;BMP280;56967;43.538;-5.646;2023-04-07T10:30:29;101322.53;;;18.03
69704;BMP280;56967;43.538;-5.646;2023-04-07T10:32:56;101331.59;;;18.07
69704;BMP280;56967;43.538;-5.646;2023-04-07T10:35:22;101327.78;;;17.98
69704;BMP280;56967;43.538;-5.646;2023-04-07T10:40:31;101292.38;;;17.97
69704;BMP280;56967;43.538;-5.646;2023-04-07T10:42:57;101278.69;;;17.62
69704;BMP280;56967;43.538;-5.646;2023-04-07T10:48:17;101137.38;;;17.05
69704;BMP280;56967;43.538;-5.646;2023-04-07T10:53:31;101063.59;;;16.64
69704;BMP280;56967;43.538;-5.646;2023-04-07T10:55:58;101020.72;;;16.99
69704;BMP280;56967;43.538;-5.646;2023-04-07T10:58:33;101036.16;;;16.80
69704;BMP280;56967;43.538;-5.646;2023-04-07T11:03:35;100947.00;;;16.84
69704;BMP280;56967;43.538;-5.646;2023-04-07T11:08:39;100970.19;;;16.94
69704;BMP280;56967;43.538;-5.646;2023-04-07T11:11:11;100982.03;;;17.08
69704;BMP280;56967;43.538;-5.646;2023-04-07T11:13:43;100944.44;;;16.67
69704;BMP280;56967;43.538;-5.646;2023-04-07T11:16:11;100942.59;;;16.95
69704;BMP280;56967;43.538;-5.646;2023-04-07T11:18:38;100945.44;;;16.88
69704;BMP280;56967;43.538;-5.646;2023-04-07T11:21:04;100955.06;;;16.94
69704;BMP280;56967;43.538;-5.646;2023-04-07T11:23:43;100953.53;;;16.98
69704;BMP280;56967;43.538;-5.646;2023-04-07T11:26:11;100909.03;;;16.84
69704;BMP280;56967;43.538;-5.646;2023-04-07T11:31:11;100921.38;;;17.00
69704;BMP280;56967;43.538;-5.646;2023-04-07T11:33:36;100914.00;;;17.07
69704;BMP280;56967;43.538;-5.646;2023-04-07T11:36:05;100906.84;;;17.07
69704;BMP280;56967;43.538;-5.646;2023-04-07T11:38:35;100887.47;;;16.80
69704;BMP280;56967;43.538;-5.646;2023-04-07T11:41:12;100874.66;;;16.72
69704;BMP280;56967;43.538;-5.646;2023-04-07T11:43:39;100872.94;;;16.88
69704;BMP280;56967;43.538;-5.646;2023-04-07T11:48:34;100821.69;;;16.55
69704;BMP280;56967;43.538;-5.646;2023-04-07T11:51:00;100781.94;;;16.65
69704;BMP280;56967;43.538;-5.646;2023-04-07T11:53:32;100781.81;;;16.50
69704;BMP280;56967;43.538;-5.646;2023-04-07T11:56:06;100762.94;;;16.74
69704;BMP280;56967;43.538;-5.646;2023-04-07T11:58:34;100804.59;;;16.73
69704;BMP280;56967;43.538;-5.646;2023-04-07T12:01:02;100782.34;;;16.79
69704;BMP280;56967;43.538;-5.646;2023-04-07T12:03:34;100803.09;;;16.82
69704;BMP280;56967;43.538;-5.646;2023-04-07T12:06:01;100794.63;;;16.90
69704;BMP280;56967;43.538;-5.646;2023-04-07T12:08:42;100834.66;;;17.10
69704;BMP280;56967;43.538;-5.646;2023-04-07T12:11:08;100825.31;;;17.08
69704;BMP280;56967;43.538;-5.646;2023-04-07T12:16:00;100806.06;;;16.91
69704;BMP280;56967;43.538;-5.646;2023-04-07T12:18:26;100796.88;;;16.72
69704;BMP280;56967;43.538;-5.646;2023-04-07T12:20:52;100789.00;;;16.82
69704;BMP280;56967;43.538;-5.646;2023-04-07T12:23:18;100835.88;;;16.71
69704;BMP280;56967;43.538;-5.646;2023-04-07T12:25:44;100812.69;;;16.88
69704;BMP280;56967;43.538;-5.646;2023-04-07T12:28:09;100793.28;;;16.83
69704;BMP280;56967;43.538;-5.646;2023-04-07T12:30:35;100774.06;;;17.07
69704;BMP280;56967;43.538;-5.646;2023-04-07T12:33:01;100753.84;;;17.06
69704;BMP280;56967;43.538;-5.646;2023-04-07T12:35:28;100787.59;;;17.06
69704;BMP280;56967;43.538;-5.646;2023-04-07T12:37:54;100792.25;;;16.89
69704;BMP280;56967;43.538;-5.646;2023-04-07T12:40:24;100767.69;;;16.72
69704;BMP280;56967;43.538;-5.646;2023-04-07T12:42:50;100759.75;;;16.77
69704;BMP280;56967;43.538;-5.646;2023-04-07T12:45:16;100779.19;;;16.82
69704;BMP280;56967;43.538;-5.646;2023-04-07T12:47:43;100778.03;;;17.05
69704;BMP280;56967;43.538;-5.646;2023-04-07T12:50:09;100750.34;;;16.59
69704;BMP280;56967;43.538;-5.646;2023-04-07T12:52:35;100744.75;;;16.97
69704;BMP280;56967;43.538;-5.646;2023-04-07T12:55:01;100784.88;;;16.96
69704;BMP280;56967;43.538;-5.646;2023-04-07T12:57:27;100765.34;;;16.80
69704;BMP280;56967;43.538;-5.646;2023-04-07T12:59:53;100699.59;;;16.87
69704;BMP280;56967;43.538;-5.646;2023-04-07T13:02:19;100689.91;;;16.71
69704;BMP280;56967;43.538;-5.646;2023-04-07T13:04:45;100639.19;;;16.67
69704;BMP280;56967;43.538;-5.646;2023-04-07T13:07:12;100650.31;;;16.69
69704;BMP280;56967;43.538;-5.646;2023-04-07T13:09:38;100655.72;;;16.85
69704;BMP280;56967;43.538;-5.646;2023-04-07T13:12:05;100668.22;;;16.84
69704;BMP280;56967;43.538;-5.646;2023-04-07T13:14:31;100696.69;;;16.94
69704;BMP280;56967;43.538;-5.646;2023-04-07T13:16:56;100703.00;;;16.88
69704;BMP280;56967;43.538;-5.646;2023-04-07T13:19:22;100639.44;;;16.66
69704;BMP280;56967;43.538;-5.646;2023-04-07T13:21:47;100673.28;;;16.86
69704;BMP280;56967;43.538;-5.646;2023-04-07T13:24:12;100678.19;;;17.09
69704;BMP280;56967;43.538;-5.646;2023-04-07T13:26:38;100665.13;;;16.55
69704;BMP280;56967;43.538;-5.646;2023-04-07T13:29:04;100664.47;;;16.80
69704;BMP280;56967;43.538;-5.646;2023-04-07T13:31:29;100690.00;;;17.33
69704;BMP280;56967;43.538;-5.646;2023-04-07T13:33:55;100679.63;;;16.85
69704;BMP280;56967;43.538;-5.646;2023-04-07T13:36:21;100628.81;;;16.66
69704;BMP280;56967;43.538;-5.646;2023-04-07T13:38:46;100615.66;;;16.86
69704;BMP280;56967;43.538;-5.646;2023-04-07T13:41:12;100611.28;;;17.17
69704;BMP280;56967;43.538;-5.646;2023-04-07T13:43:37;100610.25;;;17.18
69704;BMP280;56967;43.538;-5.646;2023-04-07T13:46:03;100595.78;;;16.89
69704;BMP280;56967;43.538;-5.646;2023-04-07T13:48:28;100618.72;;;17.20
69704;BMP280;56967;43.538;-5.646;2023-04-07T13:50:54;100557.25;;;16.86
69704;BMP280;56967;43.538;-5.646;2023-04-07T13:53:19;100565.88;;;17.18
69704;BMP280;56967;43.538;-5.646;2023-04-07T13:55:45;100612.41;;;17.31
69704;BMP280;56967;43.538;-5.646;2023-04-07T13:58:11;100633.41;;;17.32
69704;BMP280;56967;43.538;-5.646;2023-04-07T14:00:37;100635.00;;;17.28
69704;BMP280;56967;43.538;-5.646;2023-04-07T14:03:02;100588.50;;;17.36
69704;BMP280;56967;43.538;-5.646;2023-04-07T14:05:28;100632.13;;;17.50
69704;BMP280;56967;43.538;-5.646;2023-04-07T14:07:53;100623.88;;;17.52
69704;BMP280;56967;43.538;-5.646;2023-04-07T14:10:19;100657.41;;;17.58
69704;BMP280;56967;43.538;-5.646;2023-04-07T14:12:44;100627.53;;;17.30
69704;BMP280;56967;43.538;-5.646;2023-04-07T14:15:10;100635.59;;;17.61
69704;BMP280;56967;43.538;-5.646;2023-04-07T14:17:36;100647.56;;;17.58
69704;BMP280;56967;43.538;-5.646;2023-04-07T14:20:01;100679.22;;;17.75